Terminal Aerodrome Forecast
Issued by NWS

Home | Current Version | Previous Version | Graphics & Text | Print | Product List | Glossary On
Versions: 1 2 3 4 5 6 7 8 9 10 11 12 13 14 15 16 17
000
FTUS43 KMPX 291737
TAFAXN
TAF
KAXN 291737Z 2918/3018 13008KT P6SM BKN040
     FM300000 13005KT P6SM SCT040
     FM300400 12004KT P6SM SKC
     FM300900 11004KT 4SM BR SKC
      TEMPO 3009/3013 2SM BR OVC007
     FM301400 13007KT P6SM SKC=

USA.gov is the U.S. government's official web portal to all federal, state and local government web resources and services.